Aérodrome :
LOGIN :

S'inscrire | Disclaimer

   EN    FR    IT 

 










Légende :    VFR   VFR Marginal   IFR   IFR Intensif   IFR Très Intensif
Visi : 
Plafond : 
>= 8 km
>= 3000ft
5 à 8 km
1000 à 3000 ft
1500m à 5 km
500 à 1000 ft
800 à 1500m
200 à 500 ft
< 800m
< 200 ft
Symboles :   Orages  Brouillard  Fortes neiges  Fortes précipitations  Vent > 20 kt
SIGMETs :   Divers  Orages  Givrage  Turbulence  Onde Orograph.  Cendres Volcan.







- Altitude de l'aérodrome : 779 ft
- Code IATA : CMF
- Voir les cartes d'approche


LFLB - Chambery / Aix-Les-Bains

DERNIER METAR :
  • 202100Z AUTO 21007KT 9999 -RA ///TCU 15/13 Q1015

METARs EXPIRÉS :
  • 202030Z AUTO 22006KT 9999 -RA ///TCU 15/13 Q1015
  • 202000Z AUTO 20009KT 8000 -RA FEW072/// BKN086/// OVC110/// ///CB 15/13 Q1016
  • 201930Z AUTO 20010KT 7000 RA FEW048/// OVC080/// ///CB 15/13 Q1015
  • 201900Z AUTO 20010KT 170V230 9000 RA SCT046/// SCT062/// OVC084/// ///CB 16/12 Q1015 TEMPO VRB15G25KT 3000 -TSRA
  • 201830Z AUTO 17011KT 9999 -RA VCTS FEW049/// BKN058/// OVC078/// ///CB 17/12 Q1015 TEMPO VRB15G25KT 3000 -TSRA

TAF TAF LFLB
Valide du 20 à 12h jusqu'au 21 à 12h UTC


201100Z 2012/2112 35006KT CAVOK
TEMPO 2012/2021 SCT045TCU FEW050CB
PROB30
TEMPO 2014/2021 VRB15G25KT 3000 -TSRA SCT045CB
BECMG 2018/2021 15006KT
BECMG 2100/2102 VRB03KT
PROB40
TEMPO 2102/2106 SHRA BKN060TCU
Pas de NOTAMs connus pour ce terrain.



MET'MAP, la Météo Aéronautique d'un coup d'oeil ! - Copyright ORBIFLY Décembre 2007 - Disclaimer

ORBIFLY MET'MAP TEAM :

Programmation & Développement : Alexandra Zaïnal
Conception & Développement : Baudouin d'Aumeries
Co-Programmation & Développement : Marc-Olivier Méhu
Soutien technique & logistique : Manuel Goepfert

Contact : metmap@orbifly.com




SOURCES & CREDITS :

   NOAA